Edea, Cameroon
Current Conditions -  °F | °C
As of 12:00 AM on Tuesday 21 Oct 2014 (Local Time) from FKKD Reporting Station
Thunderstorm Thunderstorm  
Wind Chill: 79°   Ceiling: 1300
Heat Index: 83°   Visibility: 6mi
Dew Point: 77°   Wind: 5mph
Humidity: 94%   Direction: 80°E
Pressure: 29.88"   Gusts: NA
Location:  3.8°N, 10.12°E
Report Text: FKKD 202300Z 08004KT 9999 TS BKN013 SCT016CB 26/25 Q1012 NOSIG
Loading
Personal Weather Stations






























Interactive Weather Map New forecast layout! Learn more

10-Day Weather Forecast

Advertisements
Track Severe Weather on mobile